sensor_id;sensor_type;location;lat;lon;timestamp;temperature;humidity
59301;DHT22;45073;52.740;6.784;2023-03-15T00:01:37;2.80;99.90
59301;DHT22;45073;52.740;6.784;2023-03-15T00:04:02;2.80;99.90
59301;DHT22;45073;52.740;6.784;2023-03-15T00:06:32;2.80;99.90
59301;DHT22;45073;52.740;6.784;2023-03-15T00:08:59;2.70;99.90
59301;DHT22;45073;52.740;6.784;2023-03-15T00:11:26;2.70;99.90
59301;DHT22;45073;52.740;6.784;2023-03-15T00:13:52;2.70;99.90
59301;DHT22;45073;52.740;6.784;2023-03-15T00:16:18;2.70;99.90
59301;DHT22;45073;52.740;6.784;2023-03-15T00:18:44;2.60;99.90
59301;DHT22;45073;52.740;6.784;2023-03-15T00:21:11;2.60;99.90
59301;DHT22;45073;52.740;6.784;2023-03-15T00:23:37;2.60;99.90
59301;DHT22;45073;52.740;6.784;2023-03-15T00:26:03;2.60;99.90
59301;DHT22;45073;52.740;6.784;2023-03-15T00:28:29;2.60;99.90
59301;DHT22;45073;52.740;6.784;2023-03-15T00:31:14;2.60;99.90
59301;DHT22;45073;52.740;6.784;2023-03-15T00:33:41;2.50;99.90
59301;DHT22;45073;52.740;6.784;2023-03-15T00:36:08;2.50;99.90
59301;DHT22;45073;52.740;6.784;2023-03-15T00:38:35;2.50;99.90
59301;DHT22;45073;52.740;6.784;2023-03-15T00:41:09;2.50;99.90
59301;DHT22;45073;52.740;6.784;2023-03-15T00:43:35;2.50;99.90
59301;DHT22;45073;52.740;6.784;2023-03-15T00:46:02;2.50;99.90
59301;DHT22;45073;52.740;6.784;2023-03-15T00:48:28;2.50;99.90
59301;DHT22;45073;52.740;6.784;2023-03-15T00:51:08;2.40;99.90
59301;DHT22;45073;52.740;6.784;2023-03-15T00:53:36;2.40;99.90
59301;DHT22;45073;52.740;6.784;2023-03-15T00:56:08;2.40;99.90
59301;DHT22;45073;52.740;6.784;2023-03-15T00:58:34;2.40;99.90
59301;DHT22;45073;52.740;6.784;2023-03-15T01:01:09;2.50;99.90
59301;DHT22;45073;52.740;6.784;2023-03-15T01:03:35;2.50;99.90
59301;DHT22;45073;52.740;6.784;2023-03-15T01:06:09;2.60;99.90
59301;DHT22;45073;52.740;6.784;2023-03-15T01:08:34;2.60;99.90
59301;DHT22;45073;52.740;6.784;2023-03-15T01:11:02;2.60;99.90
59301;DHT22;45073;52.740;6.784;2023-03-15T01:13:28;2.60;99.90
59301;DHT22;45073;52.740;6.784;2023-03-15T01:15:54;2.60;99.90
59301;DHT22;45073;52.740;6.784;2023-03-15T01:18:19;2.60;99.90
59301;DHT22;45073;52.740;6.784;2023-03-15T01:20:45;2.60;99.90
59301;DHT22;45073;52.740;6.784;2023-03-15T01:23:11;2.60;99.90
59301;DHT22;45073;52.740;6.784;2023-03-15T01:25:36;2.60;99.90
59301;DHT22;45073;52.740;6.784;2023-03-15T01:28:02;2.60;99.90
59301;DHT22;45073;52.740;6.784;2023-03-15T01:30:27;2.60;99.90
59301;DHT22;45073;52.740;6.784;2023-03-15T01:32:53;2.50;99.90
59301;DHT22;45073;52.740;6.784;2023-03-15T01:35:18;2.60;99.90
59301;DHT22;45073;52.740;6.784;2023-03-15T01:37:44;2.60;99.90
59301;DHT22;45073;52.740;6.784;2023-03-15T01:40:13;2.60;99.90
59301;DHT22;45073;52.740;6.784;2023-03-15T01:46:05;2.60;99.90
59301;DHT22;45073;52.740;6.784;2023-03-15T01:48:38;2.60;99.90
59301;DHT22;45073;52.740;6.784;2023-03-15T01:54:08;2.60;99.90
59301;DHT22;45073;52.740;6.784;2023-03-15T01:56:37;2.60;99.90
59301;DHT22;45073;52.740;6.784;2023-03-15T01:59:07;2.70;99.90
59301;DHT22;45073;52.740;6.784;2023-03-15T02:01:35;2.70;99.90
59301;DHT22;45073;52.740;6.784;2023-03-15T02:04:10;2.70;99.90
59301;DHT22;45073;52.740;6.784;2023-03-15T02:06:37;2.70;99.90
59301;DHT22;45073;52.740;6.784;2023-03-15T02:09:09;2.70;99.90
59301;DHT22;45073;52.740;6.784;2023-03-15T02:11:40;2.60;99.90
59301;DHT22;45073;52.740;6.784;2023-03-15T02:14:06;2.60;99.90
59301;DHT22;45073;52.740;6.784;2023-03-15T02:16:34;2.60;99.90
59301;DHT22;45073;52.740;6.784;2023-03-15T02:19:16;2.60;99.90
59301;DHT22;45073;52.740;6.784;2023-03-15T02:21:53;2.50;99.90
59301;DHT22;45073;52.740;6.784;2023-03-15T02:24:40;2.50;99.90
59301;DHT22;45073;52.740;6.784;2023-03-15T02:27:10;2.50;99.90
59301;DHT22;45073;52.740;6.784;2023-03-15T02:29:36;2.50;99.90
59301;DHT22;45073;52.740;6.784;2023-03-15T02:32:02;2.50;99.90
59301;DHT22;45073;52.740;6.784;2023-03-15T02:34:31;2.50;99.90
59301;DHT22;45073;52.740;6.784;2023-03-15T02:36:56;2.50;99.90
59301;DHT22;45073;52.740;6.784;2023-03-15T02:39:22;2.50;99.90
59301;DHT22;45073;52.740;6.784;2023-03-15T02:41:52;2.50;99.90
59301;DHT22;45073;52.740;6.784;2023-03-15T02:44:33;2.50;99.90
59301;DHT22;45073;52.740;6.784;2023-03-15T02:47:27;2.50;99.90
59301;DHT22;45073;52.740;6.784;2023-03-15T02:49:54;2.50;99.90
59301;DHT22;45073;52.740;6.784;2023-03-15T02:52:21;2.50;99.90
59301;DHT22;45073;52.740;6.784;2023-03-15T02:54:47;2.50;99.90
59301;DHT22;45073;52.740;6.784;2023-03-15T02:57:14;2.50;99.90
59301;DHT22;45073;52.740;6.784;2023-03-15T02:59:40;2.50;99.90
59301;DHT22;45073;52.740;6.784;2023-03-15T03:02:10;2.50;99.90
59301;DHT22;45073;52.740;6.784;2023-03-15T03:04:36;2.50;99.90
59301;DHT22;45073;52.740;6.784;2023-03-15T03:07:03;2.40;99.90
59301;DHT22;45073;52.740;6.784;2023-03-15T03:09:28;2.40;99.90
59301;DHT22;45073;52.740;6.784;2023-03-15T03:11:54;2.40;99.90
59301;DHT22;45073;52.740;6.784;2023-03-15T03:14:20;2.40;99.90
59301;DHT22;45073;52.740;6.784;2023-03-15T03:16:49;2.40;99.90
59301;DHT22;45073;52.740;6.784;2023-03-15T03:19:14;2.30;99.90
59301;DHT22;45073;52.740;6.784;2023-03-15T03:21:40;2.30;99.90
59301;DHT22;45073;52.740;6.784;2023-03-15T03:24:10;2.30;99.90
59301;DHT22;45073;52.740;6.784;2023-03-15T03:26:35;2.30;99.90
59301;DHT22;45073;52.740;6.784;2023-03-15T03:29:02;2.30;99.90
59301;DHT22;45073;52.740;6.784;2023-03-15T03:31:30;2.30;99.90
59301;DHT22;45073;52.740;6.784;2023-03-15T03:33:58;2.30;99.90
59301;DHT22;45073;52.740;6.784;2023-03-15T03:36:24;2.30;99.90
59301;DHT22;45073;52.740;6.784;2023-03-15T03:38:50;2.20;99.90
59301;DHT22;45073;52.740;6.784;2023-03-15T03:41:16;2.20;99.90
59301;DHT22;45073;52.740;6.784;2023-03-15T03:43:42;2.20;99.90
59301;DHT22;45073;52.740;6.784;2023-03-15T03:46:08;2.20;99.90
59301;DHT22;45073;52.740;6.784;2023-03-15T03:48:33;2.20;99.90
59301;DHT22;45073;52.740;6.784;2023-03-15T03:50:59;2.10;99.90
59301;DHT22;45073;52.740;6.784;2023-03-15T03:53:25;2.10;99.90
59301;DHT22;45073;52.740;6.784;2023-03-15T03:55:51;2.10;99.90
59301;DHT22;45073;52.740;6.784;2023-03-15T03:58:19;2.10;99.90
59301;DHT22;45073;52.740;6.784;2023-03-15T04:00:44;2.00;99.90
59301;DHT22;45073;52.740;6.784;2023-03-15T04:03:10;2.00;99.90
59301;DHT22;45073;52.740;6.784;2023-03-15T04:05:36;2.00;99.90
59301;DHT22;45073;52.740;6.784;2023-03-15T04:08:01;2.00;99.90
59301;DHT22;45073;52.740;6.784;2023-03-15T04:10:27;2.00;99.90
59301;DHT22;45073;52.740;6.784;2023-03-15T04:12:57;2.00;99.90
59301;DHT22;45073;52.740;6.784;2023-03-15T04:15:23;1.90;99.90
59301;DHT22;45073;52.740;6.784;2023-03-15T04:17:49;1.90;99.90
59301;DHT22;45073;52.740;6.784;2023-03-15T04:20:21;1.80;99.90
59301;DHT22;45073;52.740;6.784;2023-03-15T04:22:47;1.80;99.90
59301;DHT22;45073;52.740;6.784;2023-03-15T04:25:18;1.80;99.90
59301;DHT22;45073;52.740;6.784;2023-03-15T04:27:44;1.70;99.90
59301;DHT22;45073;52.740;6.784;2023-03-15T04:30:10;1.70;99.90
59301;DHT22;45073;52.740;6.784;2023-03-15T04:32:36;1.70;99.90
59301;DHT22;45073;52.740;6.784;2023-03-15T04:35:02;1.60;99.90
59301;DHT22;45073;52.740;6.784;2023-03-15T04:37:28;1.60;99.90
59301;DHT22;45073;52.740;6.784;2023-03-15T04:39:56;1.60;99.90
59301;DHT22;45073;52.740;6.784;2023-03-15T04:42:22;1.60;99.90
59301;DHT22;45073;52.740;6.784;2023-03-15T04:44:50;1.60;99.90
59301;DHT22;45073;52.740;6.784;2023-03-15T04:47:16;1.60;99.90
59301;DHT22;45073;52.740;6.784;2023-03-15T04:49:41;1.60;99.90
59301;DHT22;45073;52.740;6.784;2023-03-15T04:52:07;1.60;99.90
59301;DHT22;45073;52.740;6.784;2023-03-15T04:54:32;1.60;99.90
59301;DHT22;45073;52.740;6.784;2023-03-15T04:56:58;1.60;99.90
59301;DHT22;45073;52.740;6.784;2023-03-15T04:59:24;1.60;99.90
59301;DHT22;45073;52.740;6.784;2023-03-15T05:01:49;1.60;99.90
59301;DHT22;45073;52.740;6.784;2023-03-15T05:04:15;1.60;99.90
59301;DHT22;45073;52.740;6.784;2023-03-15T05:06:41;1.60;99.90
59301;DHT22;45073;52.740;6.784;2023-03-15T05:09:07;1.60;99.90
59301;DHT22;45073;52.740;6.784;2023-03-15T05:11:32;1.50;99.90
59301;DHT22;45073;52.740;6.784;2023-03-15T05:13:58;1.50;99.90
59301;DHT22;45073;52.740;6.784;2023-03-15T05:16:23;1.40;99.90
59301;DHT22;45073;52.740;6.784;2023-03-15T05:18:49;1.40;99.90
59301;DHT22;45073;52.740;6.784;2023-03-15T05:21:15;1.40;99.90
59301;DHT22;45073;52.740;6.784;2023-03-15T05:23:40;1.40;99.90
59301;DHT22;45073;52.740;6.784;2023-03-15T05:26:06;1.40;99.90
59301;DHT22;45073;52.740;6.784;2023-03-15T05:28:31;1.40;99.90
59301;DHT22;45073;52.740;6.784;2023-03-15T05:30:57;1.30;99.90
59301;DHT22;45073;52.740;6.784;2023-03-15T05:33:23;1.30;99.90
59301;DHT22;45073;52.740;6.784;2023-03-15T05:35:49;1.40;99.90
59301;DHT22;45073;52.740;6.784;2023-03-15T05:38:15;1.30;99.90
59301;DHT22;45073;52.740;6.784;2023-03-15T05:40:44;1.40;99.90
59301;DHT22;45073;52.740;6.784;2023-03-15T05:43:10;1.30;99.90
59301;DHT22;45073;52.740;6.784;2023-03-15T05:45:36;1.30;99.90
59301;DHT22;45073;52.740;6.784;2023-03-15T05:48:03;1.30;99.90
59301;DHT22;45073;52.740;6.784;2023-03-15T05:50:29;1.30;99.90
59301;DHT22;45073;52.740;6.784;2023-03-15T05:52:55;1.40;99.90
59301;DHT22;45073;52.740;6.784;2023-03-15T05:55:21;1.40;99.90
59301;DHT22;45073;52.740;6.784;2023-03-15T05:57:47;1.40;99.90
59301;DHT22;45073;52.740;6.784;2023-03-15T06:00:13;1.40;99.90
59301;DHT22;45073;52.740;6.784;2023-03-15T06:02:43;1.50;99.90
59301;DHT22;45073;52.740;6.784;2023-03-15T06:05:09;1.50;99.90
59301;DHT22;45073;52.740;6.784;2023-03-15T06:07:35;1.50;99.90
59301;DHT22;45073;52.740;6.784;2023-03-15T06:10:01;1.60;99.90
59301;DHT22;45073;52.740;6.784;2023-03-15T06:12:27;1.60;99.90
59301;DHT22;45073;52.740;6.784;2023-03-15T06:14:53;1.60;99.90
59301;DHT22;45073;52.740;6.784;2023-03-15T06:17:18;1.70;99.90
59301;DHT22;45073;52.740;6.784;2023-03-15T06:19:44;1.70;99.90
59301;DHT22;45073;52.740;6.784;2023-03-15T06:22:10;1.70;99.90
59301;DHT22;45073;52.740;6.784;2023-03-15T06:24:35;1.70;99.90
59301;DHT22;45073;52.740;6.784;2023-03-15T06:27:01;1.70;99.90
59301;DHT22;45073;52.740;6.784;2023-03-15T06:29:26;1.80;99.90
59301;DHT22;45073;52.740;6.784;2023-03-15T06:31:52;1.70;99.90
59301;DHT22;45073;52.740;6.784;2023-03-15T06:34:18;1.80;99.90
59301;DHT22;45073;52.740;6.784;2023-03-15T06:36:45;1.80;99.90
59301;DHT22;45073;52.740;6.784;2023-03-15T06:39:12;1.80;99.90
59301;DHT22;45073;52.740;6.784;2023-03-15T06:41:38;1.80;99.90
59301;DHT22;45073;52.740;6.784;2023-03-15T06:44:04;1.80;99.90
59301;DHT22;45073;52.740;6.784;2023-03-15T06:46:30;1.80;99.90
59301;DHT22;45073;52.740;6.784;2023-03-15T06:48:56;1.80;99.90
59301;DHT22;45073;52.740;6.784;2023-03-15T06:51:22;1.80;99.90
59301;DHT22;45073;52.740;6.784;2023-03-15T06:53:47;1.70;99.90
59301;DHT22;45073;52.740;6.784;2023-03-15T06:56:13;1.80;99.90
59301;DHT22;45073;52.740;6.784;2023-03-15T06:58:38;1.80;99.90
59301;DHT22;45073;52.740;6.784;2023-03-15T07:01:04;1.80;99.90
59301;DHT22;45073;52.740;6.784;2023-03-15T07:03:30;1.90;99.90
59301;DHT22;45073;52.740;6.784;2023-03-15T07:05:55;1.90;99.90
59301;DHT22;45073;52.740;6.784;2023-03-15T07:08:22;1.90;99.90
59301;DHT22;45073;52.740;6.784;2023-03-15T07:10:49;2.00;99.90
59301;DHT22;45073;52.740;6.784;2023-03-15T07:13:15;2.00;99.90
59301;DHT22;45073;52.740;6.784;2023-03-15T07:15:42;2.00;99.90
59301;DHT22;45073;52.740;6.784;2023-03-15T07:18:07;2.10;99.90
59301;DHT22;45073;52.740;6.784;2023-03-15T07:20:33;2.10;99.90
59301;DHT22;45073;52.740;6.784;2023-03-15T07:22:58;2.10;99.90
59301;DHT22;45073;52.740;6.784;2023-03-15T07:25:24;2.20;99.90
59301;DHT22;45073;52.740;6.784;2023-03-15T07:27:51;2.30;99.90
59301;DHT22;45073;52.740;6.784;2023-03-15T07:30:17;2.30;99.90
59301;DHT22;45073;52.740;6.784;2023-03-15T07:32:43;2.40;99.90
59301;DHT22;45073;52.740;6.784;2023-03-15T07:35:09;2.40;99.90
59301;DHT22;45073;52.740;6.784;2023-03-15T07:37:35;2.50;99.90
59301;DHT22;45073;52.740;6.784;2023-03-15T07:40:01;2.60;99.90
59301;DHT22;45073;52.740;6.784;2023-03-15T07:42:37;2.60;99.90
59301;DHT22;45073;52.740;6.784;2023-03-15T07:45:04;2.70;99.90
59301;DHT22;45073;52.740;6.784;2023-03-15T07:47:30;2.80;99.90
59301;DHT22;45073;52.740;6.784;2023-03-15T07:49:56;2.80;99.90
59301;DHT22;45073;52.740;6.784;2023-03-15T07:52:22;2.90;99.90
59301;DHT22;45073;52.740;6.784;2023-03-15T07:54:48;3.00;99.90
59301;DHT22;45073;52.740;6.784;2023-03-15T07:57:14;3.10;99.90
59301;DHT22;45073;52.740;6.784;2023-03-15T07:59:39;3.20;99.90
59301;DHT22;45073;52.740;6.784;2023-03-15T08:02:05;3.30;99.90
59301;DHT22;45073;52.740;6.784;2023-03-15T08:04:31;3.40;99.90
59301;DHT22;45073;52.740;6.784;2023-03-15T08:06:57;3.50;99.90
59301;DHT22;45073;52.740;6.784;2023-03-15T08:09:22;3.60;99.90
59301;DHT22;45073;52.740;6.784;2023-03-15T08:11:49;3.70;99.90
59301;DHT22;45073;52.740;6.784;2023-03-15T08:14:15;3.80;99.90
59301;DHT22;45073;52.740;6.784;2023-03-15T08:16:40;3.90;99.90
59301;DHT22;45073;52.740;6.784;2023-03-15T08:19:06;4.00;99.90
59301;DHT22;45073;52.740;6.784;2023-03-15T08:21:31;4.20;99.90
59301;DHT22;45073;52.740;6.784;2023-03-15T08:23:58;4.30;99.90
59301;DHT22;45073;52.740;6.784;2023-03-15T08:26:24;4.40;99.90
59301;DHT22;45073;52.740;6.784;2023-03-15T08:28:50;4.50;99.90
59301;DHT22;45073;52.740;6.784;2023-03-15T08:31:16;4.60;99.90
59301;DHT22;45073;52.740;6.784;2023-03-15T08:33:42;4.70;99.90
59301;DHT22;45073;52.740;6.784;2023-03-15T08:36:08;4.80;99.90
59301;DHT22;45073;52.740;6.784;2023-03-15T08:38:34;4.90;99.90
59301;DHT22;45073;52.740;6.784;2023-03-15T08:41:00;5.00;99.90
59301;DHT22;45073;52.740;6.784;2023-03-15T08:43:26;5.00;99.90
59301;DHT22;45073;52.740;6.784;2023-03-15T08:45:51;5.10;99.90
59301;DHT22;45073;52.740;6.784;2023-03-15T08:48:17;5.20;99.90
59301;DHT22;45073;52.740;6.784;2023-03-15T08:50:43;5.30;99.90
59301;DHT22;45073;52.740;6.784;2023-03-15T08:53:09;5.40;99.90
59301;DHT22;45073;52.740;6.784;2023-03-15T08:55:36;5.50;99.90
59301;DHT22;45073;52.740;6.784;2023-03-15T08:58:02;5.60;99.90
59301;DHT22;45073;52.740;6.784;2023-03-15T09:00:29;5.70;99.90
59301;DHT22;45073;52.740;6.784;2023-03-15T09:02:55;5.80;99.90
59301;DHT22;45073;52.740;6.784;2023-03-15T09:05:23;5.90;99.90
59301;DHT22;45073;52.740;6.784;2023-03-15T09:07:50;5.90;99.90
59301;DHT22;45073;52.740;6.784;2023-03-15T09:10:18;6.00;99.90
59301;DHT22;45073;52.740;6.784;2023-03-15T09:12:49;6.00;99.90
59301;DHT22;45073;52.740;6.784;2023-03-15T09:15:15;6.10;99.90
59301;DHT22;45073;52.740;6.784;2023-03-15T09:17:42;6.30;99.90
59301;DHT22;45073;52.740;6.784;2023-03-15T09:20:10;6.30;99.90
59301;DHT22;45073;52.740;6.784;2023-03-15T09:22:43;6.50;99.90
59301;DHT22;45073;52.740;6.784;2023-03-15T09:25:09;6.60;99.90
59301;DHT22;45073;52.740;6.784;2023-03-15T09:27:34;6.70;99.90
59301;DHT22;45073;52.740;6.784;2023-03-15T09:30:00;6.70;99.90
59301;DHT22;45073;52.740;6.784;2023-03-15T09:32:26;6.60;99.70
59301;DHT22;45073;52.740;6.784;2023-03-15T09:34:52;6.60;98.50
59301;DHT22;45073;52.740;6.784;2023-03-15T09:37:18;6.60;99.30
59301;DHT22;45073;52.740;6.784;2023-03-15T09:39:45;6.60;98.90
59301;DHT22;45073;52.740;6.784;2023-03-15T09:42:27;6.60;97.10
59301;DHT22;45073;52.740;6.784;2023-03-15T09:45:12;6.80;99.10
59301;DHT22;45073;52.740;6.784;2023-03-15T09:50:52;7.20;94.90
59301;DHT22;45073;52.740;6.784;2023-03-15T09:53:24;7.30;96.40
59301;DHT22;45073;52.740;6.784;2023-03-15T09:55:51;7.50;95.20
59301;DHT22;45073;52.740;6.784;2023-03-15T09:58:21;7.50;96.00
59301;DHT22;45073;52.740;6.784;2023-03-15T10:01:04;7.70;96.60
59301;DHT22;45073;52.740;6.784;2023-03-15T10:03:47;7.80;95.10
59301;DHT22;45073;52.740;6.784;2023-03-15T10:08:39;7.90;92.10
59301;DHT22;45073;52.740;6.784;2023-03-15T10:11:17;8.00;94.80
59301;DHT22;45073;52.740;6.784;2023-03-15T10:19:38;8.40;93.00
59301;DHT22;45073;52.740;6.784;2023-03-15T10:24:55;8.70;90.90
59301;DHT22;45073;52.740;6.784;2023-03-15T10:27:36;8.80;89.30
59301;DHT22;45073;52.740;6.784;2023-03-15T10:30:16;8.60;82.70
59301;DHT22;45073;52.740;6.784;2023-03-15T10:32:43;8.50;81.70
59301;DHT22;45073;52.740;6.784;2023-03-15T10:35:15;8.50;83.90
59301;DHT22;45073;52.740;6.784;2023-03-15T10:37:41;8.60;84.80
59301;DHT22;45073;52.740;6.784;2023-03-15T10:40:08;8.70;84.60
59301;DHT22;45073;52.740;6.784;2023-03-15T10:42:41;8.70;84.10
59301;DHT22;45073;52.740;6.784;2023-03-15T10:45:23;8.90;84.60
59301;DHT22;45073;52.740;6.784;2023-03-15T10:47:50;9.00;82.80
59301;DHT22;45073;52.740;6.784;2023-03-15T10:50:36;9.20;83.90
59301;DHT22;45073;52.740;6.784;2023-03-15T10:53:15;9.10;78.50
59301;DHT22;45073;52.740;6.784;2023-03-15T10:55:45;9.00;78.50
59301;DHT22;45073;52.740;6.784;2023-03-15T10:58:18;9.10;80.30
59301;DHT22;45073;52.740;6.784;2023-03-15T11:00:50;9.20;80.00
59301;DHT22;45073;52.740;6.784;2023-03-15T11:03:20;9.30;77.90
59301;DHT22;45073;52.740;6.784;2023-03-15T11:05:48;9.30;76.40
59301;DHT22;45073;52.740;6.784;2023-03-15T11:08:17;9.20;74.70
59301;DHT22;45073;52.740;6.784;2023-03-15T11:10:44;9.20;74.10
59301;DHT22;45073;52.740;6.784;2023-03-15T11:15:38;9.60;76.80
59301;DHT22;45073;52.740;6.784;2023-03-15T11:18:04;9.90;77.00
59301;DHT22;45073;52.740;6.784;2023-03-15T11:20:38;10.10;77.00
59301;DHT22;45073;52.740;6.784;2023-03-15T11:23:32;10.40;76.60
59301;DHT22;45073;52.740;6.784;2023-03-15T11:25:59;10.60;75.10
59301;DHT22;45073;52.740;6.784;2023-03-15T11:28:27;10.70;75.70
59301;DHT22;45073;52.740;6.784;2023-03-15T11:30:56;11.00;75.20
59301;DHT22;45073;52.740;6.784;2023-03-15T11:36:14;11.20;71.40
59301;DHT22;45073;52.740;6.784;2023-03-15T11:38:43;10.90;68.20
59301;DHT22;45073;52.740;6.784;2023-03-15T11:41:26;10.80;69.90
59301;DHT22;45073;52.740;6.784;2023-03-15T11:43:58;10.50;66.20
59301;DHT22;45073;52.740;6.784;2023-03-15T11:46:38;10.30;67.30
59301;DHT22;45073;52.740;6.784;2023-03-15T11:49:18;10.10;67.80
59301;DHT22;45073;52.740;6.784;2023-03-15T11:51:48;10.20;68.60
59301;DHT22;45073;52.740;6.784;2023-03-15T11:54:16;10.30;68.70
59301;DHT22;45073;52.740;6.784;2023-03-15T11:59:22;10.30;68.50
59301;DHT22;45073;52.740;6.784;2023-03-15T12:06:58;10.20;66.80
59301;DHT22;45073;52.740;6.784;2023-03-15T12:15:05;10.30;63.80
59301;DHT22;45073;52.740;6.784;2023-03-15T12:17:52;10.40;65.00
59301;DHT22;45073;52.740;6.784;2023-03-15T12:20:39;10.40;63.70
59301;DHT22;45073;52.740;6.784;2023-03-15T12:28:40;10.50;64.10
59301;DHT22;45073;52.740;6.784;2023-03-15T12:31:10;10.50;64.20
59301;DHT22;45073;52.740;6.784;2023-03-15T12:33:56;10.60;64.00
59301;DHT22;45073;52.740;6.784;2023-03-15T12:36:38;10.40;63.30
59301;DHT22;45073;52.740;6.784;2023-03-15T12:41:35;10.60;63.10
59301;DHT22;45073;52.740;6.784;2023-03-15T12:49:12;10.80;61.30
59301;DHT22;45073;52.740;6.784;2023-03-15T12:51:44;10.90;60.70
59301;DHT22;45073;52.740;6.784;2023-03-15T12:54:18;10.90;59.90
59301;DHT22;45073;52.740;6.784;2023-03-15T12:57:10;10.90;60.30
59301;DHT22;45073;52.740;6.784;2023-03-15T13:02:26;11.00;59.80
59301;DHT22;45073;52.740;6.784;2023-03-15T13:05:09;11.10;59.00
59301;DHT22;45073;52.740;6.784;2023-03-15T13:10:38;11.10;58.20
59301;DHT22;45073;52.740;6.784;2023-03-15T13:16:08;11.20;59.90
59301;DHT22;45073;52.740;6.784;2023-03-15T13:18:57;11.20;59.70
59301;DHT22;45073;52.740;6.784;2023-03-15T13:21:30;10.90;59.60
59301;DHT22;45073;52.740;6.784;2023-03-15T13:23:58;11.00;59.30
59301;DHT22;45073;52.740;6.784;2023-03-15T13:26:44;11.20;59.20
59301;DHT22;45073;52.740;6.784;2023-03-15T13:29:16;11.50;58.20
59301;DHT22;45073;52.740;6.784;2023-03-15T13:31:44;12.10;58.00
59301;DHT22;45073;52.740;6.784;2023-03-15T13:34:20;13.20;58.90
59301;DHT22;45073;52.740;6.784;2023-03-15T13:36:55;14.70;56.80
59301;DHT22;45073;52.740;6.784;2023-03-15T13:39:26;15.80;55.40
59301;DHT22;45073;52.740;6.784;2023-03-15T13:42:01;15.50;51.90
59301;DHT22;45073;52.740;6.784;2023-03-15T13:44:28;14.80;53.80
59301;DHT22;45073;52.740;6.784;2023-03-15T13:46:55;14.20;53.70
59301;DHT22;45073;52.740;6.784;2023-03-15T13:49:22;13.80;55.30
59301;DHT22;45073;52.740;6.784;2023-03-15T13:51:50;14.70;55.70
59301;DHT22;45073;52.740;6.784;2023-03-15T13:54:27;16.20;53.60
59301;DHT22;45073;52.740;6.784;2023-03-15T13:57:03;16.90;48.60
59301;DHT22;45073;52.740;6.784;2023-03-15T14:02:03;17.40;46.20
59301;DHT22;45073;52.740;6.784;2023-03-15T14:04:34;17.50;46.20
59301;DHT22;45073;52.740;6.784;2023-03-15T14:10:25;17.90;44.00
59301;DHT22;45073;52.740;6.784;2023-03-15T14:12:52;18.10;45.10
59301;DHT22;45073;52.740;6.784;2023-03-15T14:15:24;18.40;44.20
59301;DHT22;45073;52.740;6.784;2023-03-15T14:18:01;18.60;45.20
59301;DHT22;45073;52.740;6.784;2023-03-15T14:20:30;18.30;44.10
59301;DHT22;45073;52.740;6.784;2023-03-15T14:23:00;17.50;44.40
59301;DHT22;45073;52.740;6.784;2023-03-15T14:25:26;16.50;45.10
59301;DHT22;45073;52.740;6.784;2023-03-15T14:27:52;16.30;46.50
59301;DHT22;45073;52.740;6.784;2023-03-15T14:30:24;16.10;45.80
59301;DHT22;45073;52.740;6.784;2023-03-15T14:32:55;15.80;45.80
59301;DHT22;45073;52.740;6.784;2023-03-15T14:35:27;15.90;46.90
59301;DHT22;45073;52.740;6.784;2023-03-15T14:38:05;16.30;46.60
59301;DHT22;45073;52.740;6.784;2023-03-15T14:40:34;16.80;46.10
59301;DHT22;45073;52.740;6.784;2023-03-15T14:43:01;16.80;43.70
59301;DHT22;45073;52.740;6.784;2023-03-15T14:45:27;16.90;45.00
59301;DHT22;45073;52.740;6.784;2023-03-15T14:48:00;17.10;43.40
59301;DHT22;45073;52.740;6.784;2023-03-15T14:50:33;17.50;43.50
59301;DHT22;45073;52.740;6.784;2023-03-15T14:52:59;17.70;41.90
59301;DHT22;45073;52.740;6.784;2023-03-15T14:55:31;18.00;41.30
59301;DHT22;45073;52.740;6.784;2023-03-15T14:58:00;18.40;41.30
59301;DHT22;45073;52.740;6.784;2023-03-15T15:00:26;18.40;41.50
59301;DHT22;45073;52.740;6.784;2023-03-15T15:02:54;18.40;41.80
59301;DHT22;45073;52.740;6.784;2023-03-15T15:05:31;18.30;42.00
59301;DHT22;45073;52.740;6.784;2023-03-15T15:08:12;18.00;42.70
59301;DHT22;45073;52.740;6.784;2023-03-15T15:10:43;18.00;40.50
59301;DHT22;45073;52.740;6.784;2023-03-15T15:13:16;17.90;40.60
59301;DHT22;45073;52.740;6.784;2023-03-15T15:15:43;18.30;40.50
59301;DHT22;45073;52.740;6.784;2023-03-15T15:18:08;18.00;41.70
59301;DHT22;45073;52.740;6.784;2023-03-15T15:20:34;17.40;43.00
59301;DHT22;45073;52.740;6.784;2023-03-15T15:23:00;16.70;43.80
59301;DHT22;45073;52.740;6.784;2023-03-15T15:25:26;15.80;46.00
59301;DHT22;45073;52.740;6.784;2023-03-15T15:27:54;15.00;46.00
59301;DHT22;45073;52.740;6.784;2023-03-15T15:30:22;14.60;46.90
59301;DHT22;45073;52.740;6.784;2023-03-15T15:32:49;14.50;46.60
59301;DHT22;45073;52.740;6.784;2023-03-15T15:35:18;14.30;47.60
59301;DHT22;45073;52.740;6.784;2023-03-15T15:37:46;14.00;49.10
59301;DHT22;45073;52.740;6.784;2023-03-15T15:40:38;13.90;49.40
59301;DHT22;45073;52.740;6.784;2023-03-15T15:43:05;13.50;48.50
59301;DHT22;45073;52.740;6.784;2023-03-15T15:45:33;13.30;50.20
59301;DHT22;45073;52.740;6.784;2023-03-15T15:47:59;13.00;50.70
59301;DHT22;45073;52.740;6.784;2023-03-15T15:50:31;12.90;51.20
59301;DHT22;45073;52.740;6.784;2023-03-15T15:52:59;12.80;51.20
59301;DHT22;45073;52.740;6.784;2023-03-15T15:55:28;12.80;51.70
59301;DHT22;45073;52.740;6.784;2023-03-15T15:57:55;12.70;51.00
59301;DHT22;45073;52.740;6.784;2023-03-15T16:00:25;12.60;51.50
59301;DHT22;45073;52.740;6.784;2023-03-15T16:02:52;12.60;52.00
59301;DHT22;45073;52.740;6.784;2023-03-15T16:05:19;12.60;51.50
59301;DHT22;45073;52.740;6.784;2023-03-15T16:07:45;12.70;52.30
59301;DHT22;45073;52.740;6.784;2023-03-15T16:10:18;12.70;52.10
59301;DHT22;45073;52.740;6.784;2023-03-15T16:12:44;12.50;51.80
59301;DHT22;45073;52.740;6.784;2023-03-15T16:15:11;12.40;52.80
59301;DHT22;45073;52.740;6.784;2023-03-15T16:17:38;12.40;53.40
59301;DHT22;45073;52.740;6.784;2023-03-15T16:20:04;12.20;52.80
59301;DHT22;45073;52.740;6.784;2023-03-15T16:22:35;12.10;52.90
59301;DHT22;45073;52.740;6.784;2023-03-15T16:25:10;12.00;53.40
59301;DHT22;45073;52.740;6.784;2023-03-15T16:27:39;11.90;53.70
59301;DHT22;45073;52.740;6.784;2023-03-15T16:30:05;11.80;54.10
59301;DHT22;45073;52.740;6.784;2023-03-15T16:32:31;11.70;54.70
59301;DHT22;45073;52.740;6.784;2023-03-15T16:34:59;11.60;54.90
59301;DHT22;45073;52.740;6.784;2023-03-15T16:37:28;11.40;54.60
59301;DHT22;45073;52.740;6.784;2023-03-15T16:39:58;11.30;55.30
59301;DHT22;45073;52.740;6.784;2023-03-15T16:42:24;11.10;55.80
59301;DHT22;45073;52.740;6.784;2023-03-15T16:44:51;10.90;56.20
59301;DHT22;45073;52.740;6.784;2023-03-15T16:47:17;10.80;56.40
59301;DHT22;45073;52.740;6.784;2023-03-15T16:49:43;10.70;56.40
59301;DHT22;45073;52.740;6.784;2023-03-15T16:52:11;10.60;56.50
59301;DHT22;45073;52.740;6.784;2023-03-15T16:54:38;10.50;56.70
59301;DHT22;45073;52.740;6.784;2023-03-15T16:57:11;10.30;57.10
59301;DHT22;45073;52.740;6.784;2023-03-15T16:59:38;10.20;57.30